sensor_id;sensor_type;location;lat;lon;timestamp;P1;durP1;ratioP1;P2;durP2;ratioP2
8895;SDS011;4484;48.928;10.066;2023-03-31T00:01:50;6.47;;;1.80;;
8895;SDS011;4484;48.928;10.066;2023-03-31T00:04:18;3.43;;;1.47;;
8895;SDS011;4484;48.928;10.066;2023-03-31T00:06:49;4.07;;;1.70;;
8895;SDS011;4484;48.928;10.066;2023-03-31T00:09:20;9.00;;;2.43;;
8895;SDS011;4484;48.928;10.066;2023-03-31T00:11:50;7.70;;;2.80;;
8895;SDS011;4484;48.928;10.066;2023-03-31T00:14:18;6.53;;;2.20;;
8895;SDS011;4484;48.928;10.066;2023-03-31T00:16:46;4.13;;;2.00;;
8895;SDS011;4484;48.928;10.066;2023-03-31T00:19:13;4.97;;;2.27;;
8895;SDS011;4484;48.928;10.066;2023-03-31T00:21:44;7.60;;;2.37;;
8895;SDS011;4484;48.928;10.066;2023-03-31T00:24:13;8.80;;;3.13;;
8895;SDS011;4484;48.928;10.066;2023-03-31T00:26:41;6.47;;;3.20;;
8895;SDS011;4484;48.928;10.066;2023-03-31T00:29:08;9.93;;;3.83;;
8895;SDS011;4484;48.928;10.066;2023-03-31T00:31:38;5.03;;;3.20;;
8895;SDS011;4484;48.928;10.066;2023-03-31T00:34:05;9.50;;;3.67;;
8895;SDS011;4484;48.928;10.066;2023-03-31T00:36:32;9.57;;;3.17;;
8895;SDS011;4484;48.928;10.066;2023-03-31T00:39:03;9.10;;;3.17;;
8895;SDS011;4484;48.928;10.066;2023-03-31T00:41:35;4.57;;;2.23;;
8895;SDS011;4484;48.928;10.066;2023-03-31T00:44:12;6.87;;;2.30;;
8895;SDS011;4484;48.928;10.066;2023-03-31T00:46:45;6.50;;;2.00;;
8895;SDS011;4484;48.928;10.066;2023-03-31T00:49:19;4.20;;;1.57;;
8895;SDS011;4484;48.928;10.066;2023-03-31T00:51:54;5.43;;;1.50;;
8895;SDS011;4484;48.928;10.066;2023-03-31T00:54:27;7.93;;;1.23;;
8895;SDS011;4484;48.928;10.066;2023-03-31T00:56:58;7.00;;;1.47;;
8895;SDS011;4484;48.928;10.066;2023-03-31T00:59:29;7.50;;;2.13;;
8895;SDS011;4484;48.928;10.066;2023-03-31T01:02:00;5.63;;;2.37;;
8895;SDS011;4484;48.928;10.066;2023-03-31T01:04:32;3.23;;;1.47;;
8895;SDS011;4484;48.928;10.066;2023-03-31T01:07:07;5.73;;;1.63;;
8895;SDS011;4484;48.928;10.066;2023-03-31T01:09:42;4.00;;;1.77;;
8895;SDS011;4484;48.928;10.066;2023-03-31T01:12:13;4.03;;;1.93;;
8895;SDS011;4484;48.928;10.066;2023-03-31T01:14:42;5.03;;;1.97;;
8895;SDS011;4484;48.928;10.066;2023-03-31T01:17:10;8.13;;;1.93;;
8895;SDS011;4484;48.928;10.066;2023-03-31T01:19:48;4.57;;;1.30;;
8895;SDS011;4484;48.928;10.066;2023-03-31T01:29:05;4.83;;;1.60;;
8895;SDS011;4484;48.928;10.066;2023-03-31T01:46:00;5.37;;;1.40;;
8895;SDS011;4484;48.928;10.066;2023-03-31T01:51:39;4.87;;;1.70;;
8895;SDS011;4484;48.928;10.066;2023-03-31T01:57:16;6.60;;;1.60;;
8895;SDS011;4484;48.928;10.066;2023-03-31T02:00:07;7.37;;;2.80;;
8895;SDS011;4484;48.928;10.066;2023-03-31T02:02:49;12.40;;;4.33;;
8895;SDS011;4484;48.928;10.066;2023-03-31T02:05:26;9.20;;;3.20;;
8895;SDS011;4484;48.928;10.066;2023-03-31T02:07:59;5.50;;;2.07;;
8895;SDS011;4484;48.928;10.066;2023-03-31T02:10:31;4.57;;;1.70;;
8895;SDS011;4484;48.928;10.066;2023-03-31T02:13:00;3.70;;;1.50;;
8895;SDS011;4484;48.928;10.066;2023-03-31T02:15:30;3.23;;;1.40;;
8895;SDS011;4484;48.928;10.066;2023-03-31T02:18:02;4.97;;;1.70;;
8895;SDS011;4484;48.928;10.066;2023-03-31T02:20:37;4.47;;;1.30;;
8895;SDS011;4484;48.928;10.066;2023-03-31T02:23:07;6.13;;;1.53;;
8895;SDS011;4484;48.928;10.066;2023-03-31T02:25:38;4.93;;;1.60;;
8895;SDS011;4484;48.928;10.066;2023-03-31T02:28:14;2.93;;;1.30;;
8895;SDS011;4484;48.928;10.066;2023-03-31T02:33:39;4.77;;;1.70;;
8895;SDS011;4484;48.928;10.066;2023-03-31T02:36:06;5.30;;;1.43;;
8895;SDS011;4484;48.928;10.066;2023-03-31T02:38:36;4.13;;;1.20;;
8895;SDS011;4484;48.928;10.066;2023-03-31T02:41:08;3.67;;;1.20;;
8895;SDS011;4484;48.928;10.066;2023-03-31T02:43:35;5.03;;;1.30;;
8895;SDS011;4484;48.928;10.066;2023-03-31T02:46:02;5.60;;;1.30;;
8895;SDS011;4484;48.928;10.066;2023-03-31T02:48:31;4.97;;;1.20;;
8895;SDS011;4484;48.928;10.066;2023-03-31T03:11:46;3.63;;;1.30;;
8895;SDS011;4484;48.928;10.066;2023-03-31T03:17:38;4.30;;;1.43;;
8895;SDS011;4484;48.928;10.066;2023-03-31T03:20:09;4.37;;;1.70;;
8895;SDS011;4484;48.928;10.066;2023-03-31T03:22:38;4.97;;;1.50;;
8895;SDS011;4484;48.928;10.066;2023-03-31T03:25:06;4.70;;;1.57;;
8895;SDS011;4484;48.928;10.066;2023-03-31T03:27:36;6.77;;;1.67;;
8895;SDS011;4484;48.928;10.066;2023-03-31T03:30:04;5.27;;;1.27;;
8895;SDS011;4484;48.928;10.066;2023-03-31T03:32:32;5.47;;;1.70;;
8895;SDS011;4484;48.928;10.066;2023-03-31T03:34:59;3.67;;;1.70;;
8895;SDS011;4484;48.928;10.066;2023-03-31T03:37:27;9.53;;;1.90;;
8895;SDS011;4484;48.928;10.066;2023-03-31T03:39:54;6.63;;;1.93;;
8895;SDS011;4484;48.928;10.066;2023-03-31T03:42:21;5.43;;;1.77;;
8895;SDS011;4484;48.928;10.066;2023-03-31T03:44:48;5.43;;;1.40;;
8895;SDS011;4484;48.928;10.066;2023-03-31T03:47:15;5.47;;;1.30;;
8895;SDS011;4484;48.928;10.066;2023-03-31T03:49:42;6.47;;;1.80;;
8895;SDS011;4484;48.928;10.066;2023-03-31T03:52:08;6.17;;;1.80;;
8895;SDS011;4484;48.928;10.066;2023-03-31T03:54:35;4.40;;;1.63;;
8895;SDS011;4484;48.928;10.066;2023-03-31T03:57:02;5.57;;;1.70;;
8895;SDS011;4484;48.928;10.066;2023-03-31T03:59:29;9.93;;;2.20;;
8895;SDS011;4484;48.928;10.066;2023-03-31T04:01:56;7.40;;;2.00;;
8895;SDS011;4484;48.928;10.066;2023-03-31T04:04:23;4.70;;;1.90;;
8895;SDS011;4484;48.928;10.066;2023-03-31T04:06:50;7.37;;;1.70;;
8895;SDS011;4484;48.928;10.066;2023-03-31T04:09:17;5.57;;;2.30;;
8895;SDS011;4484;48.928;10.066;2023-03-31T04:11:43;7.60;;;2.03;;
8895;SDS011;4484;48.928;10.066;2023-03-31T04:14:10;7.80;;;1.87;;
8895;SDS011;4484;48.928;10.066;2023-03-31T04:16:37;3.70;;;1.70;;
8895;SDS011;4484;48.928;10.066;2023-03-31T04:19:05;6.30;;;1.70;;
8895;SDS011;4484;48.928;10.066;2023-03-31T04:21:33;6.43;;;1.80;;
8895;SDS011;4484;48.928;10.066;2023-03-31T04:24:00;7.07;;;2.30;;
8895;SDS011;4484;48.928;10.066;2023-03-31T04:26:33;4.83;;;1.90;;
8895;SDS011;4484;48.928;10.066;2023-03-31T04:29:10;4.70;;;1.83;;
8895;SDS011;4484;48.928;10.066;2023-03-31T04:31:38;6.73;;;2.20;;
8895;SDS011;4484;48.928;10.066;2023-03-31T04:34:09;6.63;;;1.80;;
8895;SDS011;4484;48.928;10.066;2023-03-31T04:36:40;6.93;;;2.03;;
8895;SDS011;4484;48.928;10.066;2023-03-31T04:39:14;4.53;;;2.00;;
8895;SDS011;4484;48.928;10.066;2023-03-31T04:41:42;4.37;;;1.67;;
8895;SDS011;4484;48.928;10.066;2023-03-31T04:44:09;5.43;;;1.50;;
8895;SDS011;4484;48.928;10.066;2023-03-31T04:46:36;6.07;;;1.70;;
8895;SDS011;4484;48.928;10.066;2023-03-31T04:49:03;5.03;;;1.70;;
8895;SDS011;4484;48.928;10.066;2023-03-31T04:51:31;6.37;;;2.00;;
8895;SDS011;4484;48.928;10.066;2023-03-31T04:53:57;4.27;;;1.90;;
8895;SDS011;4484;48.928;10.066;2023-03-31T04:56:24;5.17;;;2.30;;
8895;SDS011;4484;48.928;10.066;2023-03-31T04:58:52;4.70;;;2.63;;
8895;SDS011;4484;48.928;10.066;2023-03-31T05:01:19;5.27;;;2.40;;
8895;SDS011;4484;48.928;10.066;2023-03-31T05:03:46;4.90;;;2.13;;
8895;SDS011;4484;48.928;10.066;2023-03-31T05:06:16;8.07;;;2.43;;
8895;SDS011;4484;48.928;10.066;2023-03-31T05:08:43;5.73;;;2.30;;
8895;SDS011;4484;48.928;10.066;2023-03-31T05:11:10;4.93;;;2.27;;
8895;SDS011;4484;48.928;10.066;2023-03-31T05:13:37;4.63;;;2.00;;
8895;SDS011;4484;48.928;10.066;2023-03-31T05:16:08;5.70;;;2.30;;
8895;SDS011;4484;48.928;10.066;2023-03-31T05:18:37;2.67;;;1.60;;
8895;SDS011;4484;48.928;10.066;2023-03-31T05:21:08;4.83;;;2.23;;
8895;SDS011;4484;48.928;10.066;2023-03-31T05:23:44;5.40;;;2.37;;
8895;SDS011;4484;48.928;10.066;2023-03-31T05:26:12;7.90;;;2.23;;
8895;SDS011;4484;48.928;10.066;2023-03-31T05:28:40;5.90;;;2.60;;
8895;SDS011;4484;48.928;10.066;2023-03-31T05:31:08;9.73;;;2.57;;
8895;SDS011;4484;48.928;10.066;2023-03-31T05:33:36;7.70;;;2.43;;
8895;SDS011;4484;48.928;10.066;2023-03-31T05:36:08;5.60;;;2.20;;
8895;SDS011;4484;48.928;10.066;2023-03-31T05:38:36;3.97;;;2.13;;
8895;SDS011;4484;48.928;10.066;2023-03-31T05:41:05;6.73;;;2.30;;
8895;SDS011;4484;48.928;10.066;2023-03-31T05:43:34;8.87;;;2.57;;
8895;SDS011;4484;48.928;10.066;2023-03-31T05:46:02;8.87;;;2.77;;
8895;SDS011;4484;48.928;10.066;2023-03-31T05:48:30;10.60;;;4.60;;
8895;SDS011;4484;48.928;10.066;2023-03-31T05:50:57;5.67;;;3.23;;
8895;SDS011;4484;48.928;10.066;2023-03-31T05:53:25;11.00;;;3.20;;
8895;SDS011;4484;48.928;10.066;2023-03-31T05:55:59;9.27;;;2.97;;
8895;SDS011;4484;48.928;10.066;2023-03-31T05:58:27;7.83;;;3.40;;
8895;SDS011;4484;48.928;10.066;2023-03-31T06:01:05;8.00;;;3.37;;
8895;SDS011;4484;48.928;10.066;2023-03-31T06:03:42;7.83;;;3.23;;
8895;SDS011;4484;48.928;10.066;2023-03-31T06:06:09;9.97;;;3.40;;
8895;SDS011;4484;48.928;10.066;2023-03-31T06:08:38;5.40;;;3.00;;
8895;SDS011;4484;48.928;10.066;2023-03-31T06:11:06;13.70;;;3.57;;
8895;SDS011;4484;48.928;10.066;2023-03-31T06:13:34;7.77;;;3.70;;
8895;SDS011;4484;48.928;10.066;2023-03-31T06:16:02;10.27;;;3.60;;
8895;SDS011;4484;48.928;10.066;2023-03-31T06:18:30;4.80;;;3.33;;
8895;SDS011;4484;48.928;10.066;2023-03-31T06:20:59;6.97;;;3.50;;
8895;SDS011;4484;48.928;10.066;2023-03-31T06:23:26;5.87;;;3.10;;
8895;SDS011;4484;48.928;10.066;2023-03-31T06:25:53;13.40;;;3.80;;
8895;SDS011;4484;48.928;10.066;2023-03-31T06:28:27;6.67;;;3.50;;
8895;SDS011;4484;48.928;10.066;2023-03-31T06:33:27;7.97;;;3.50;;
8895;SDS011;4484;48.928;10.066;2023-03-31T06:35:54;12.90;;;3.57;;
8895;SDS011;4484;48.928;10.066;2023-03-31T06:38:22;11.17;;;4.07;;
8895;SDS011;4484;48.928;10.066;2023-03-31T06:40:50;10.57;;;3.90;;
8895;SDS011;4484;48.928;10.066;2023-03-31T06:43:17;10.90;;;4.33;;
8895;SDS011;4484;48.928;10.066;2023-03-31T06:45:44;6.90;;;3.50;;
8895;SDS011;4484;48.928;10.066;2023-03-31T06:48:11;5.83;;;3.90;;
8895;SDS011;4484;48.928;10.066;2023-03-31T06:50:39;11.77;;;3.87;;
8895;SDS011;4484;48.928;10.066;2023-03-31T06:53:09;11.13;;;4.20;;
8895;SDS011;4484;48.928;10.066;2023-03-31T06:55:37;14.03;;;4.00;;
8895;SDS011;4484;48.928;10.066;2023-03-31T06:58:04;13.10;;;5.07;;
8895;SDS011;4484;48.928;10.066;2023-03-31T07:00:31;9.47;;;4.50;;
8895;SDS011;4484;48.928;10.066;2023-03-31T07:02:59;10.07;;;4.83;;
8895;SDS011;4484;48.928;10.066;2023-03-31T07:05:27;12.77;;;5.10;;
8895;SDS011;4484;48.928;10.066;2023-03-31T07:07:54;13.90;;;6.53;;
8895;SDS011;4484;48.928;10.066;2023-03-31T07:10:23;7.43;;;5.00;;
8895;SDS011;4484;48.928;10.066;2023-03-31T07:12:51;10.33;;;4.67;;
8895;SDS011;4484;48.928;10.066;2023-03-31T07:15:18;8.43;;;4.80;;
8895;SDS011;4484;48.928;10.066;2023-03-31T07:17:45;10.27;;;4.43;;
8895;SDS011;4484;48.928;10.066;2023-03-31T07:20:16;7.70;;;4.10;;
8895;SDS011;4484;48.928;10.066;2023-03-31T07:22:44;8.40;;;4.13;;
8895;SDS011;4484;48.928;10.066;2023-03-31T07:25:13;8.90;;;4.33;;
8895;SDS011;4484;48.928;10.066;2023-03-31T07:27:41;8.37;;;4.50;;
8895;SDS011;4484;48.928;10.066;2023-03-31T07:30:11;9.40;;;4.47;;
8895;SDS011;4484;48.928;10.066;2023-03-31T07:32:39;9.50;;;4.83;;
8895;SDS011;4484;48.928;10.066;2023-03-31T07:35:07;10.87;;;5.33;;
8895;SDS011;4484;48.928;10.066;2023-03-31T07:37:42;11.63;;;6.33;;
8895;SDS011;4484;48.928;10.066;2023-03-31T07:40:14;7.87;;;5.53;;
8895;SDS011;4484;48.928;10.066;2023-03-31T07:42:44;7.03;;;3.50;;
8895;SDS011;4484;48.928;10.066;2023-03-31T07:45:15;6.27;;;2.70;;
8895;SDS011;4484;48.928;10.066;2023-03-31T07:47:45;4.40;;;2.30;;
8895;SDS011;4484;48.928;10.066;2023-03-31T07:50:12;5.20;;;2.40;;
8895;SDS011;4484;48.928;10.066;2023-03-31T07:52:41;6.80;;;2.30;;
8895;SDS011;4484;48.928;10.066;2023-03-31T07:55:12;8.07;;;2.37;;
8895;SDS011;4484;48.928;10.066;2023-03-31T07:57:39;5.70;;;2.50;;
8895;SDS011;4484;48.928;10.066;2023-03-31T08:00:08;6.40;;;2.17;;
8895;SDS011;4484;48.928;10.066;2023-03-31T08:02:40;2.80;;;1.90;;
8895;SDS011;4484;48.928;10.066;2023-03-31T08:05:09;3.40;;;2.17;;
8895;SDS011;4484;48.928;10.066;2023-03-31T08:07:39;4.23;;;1.97;;
8895;SDS011;4484;48.928;10.066;2023-03-31T08:10:08;3.53;;;1.93;;
8895;SDS011;4484;48.928;10.066;2023-03-31T08:12:39;4.17;;;2.33;;
8895;SDS011;4484;48.928;10.066;2023-03-31T08:15:06;6.00;;;2.93;;
8895;SDS011;4484;48.928;10.066;2023-03-31T08:17:34;3.77;;;2.03;;
8895;SDS011;4484;48.928;10.066;2023-03-31T08:20:02;4.13;;;1.80;;
8895;SDS011;4484;48.928;10.066;2023-03-31T08:22:33;3.57;;;2.30;;
8895;SDS011;4484;48.928;10.066;2023-03-31T08:25:02;4.40;;;1.60;;
8895;SDS011;4484;48.928;10.066;2023-03-31T08:27:34;4.37;;;1.50;;
8895;SDS011;4484;48.928;10.066;2023-03-31T08:30:03;3.10;;;1.63;;
8895;SDS011;4484;48.928;10.066;2023-03-31T08:32:32;5.03;;;1.60;;
8895;SDS011;4484;48.928;10.066;2023-03-31T08:35:00;4.70;;;1.60;;
8895;SDS011;4484;48.928;10.066;2023-03-31T08:37:27;2.30;;;1.40;;
8895;SDS011;4484;48.928;10.066;2023-03-31T08:39:54;2.37;;;1.30;;
8895;SDS011;4484;48.928;10.066;2023-03-31T08:42:31;2.03;;;1.30;;
8895;SDS011;4484;48.928;10.066;2023-03-31T08:47:36;2.07;;;1.10;;
8895;SDS011;4484;48.928;10.066;2023-03-31T08:50:12;1.93;;;1.40;;
8895;SDS011;4484;48.928;10.066;2023-03-31T08:53:03;2.47;;;1.00;;
8895;SDS011;4484;48.928;10.066;2023-03-31T08:55:41;2.00;;;1.10;;
8895;SDS011;4484;48.928;10.066;2023-03-31T08:58:24;1.80;;;1.10;;
8895;SDS011;4484;48.928;10.066;2023-03-31T09:01:21;3.03;;;1.57;;
8895;SDS011;4484;48.928;10.066;2023-03-31T09:06:42;2.13;;;1.03;;
8895;SDS011;4484;48.928;10.066;2023-03-31T09:09:33;3.77;;;1.17;;
8895;SDS011;4484;48.928;10.066;2023-03-31T09:15:35;3.43;;;1.03;;
8895;SDS011;4484;48.928;10.066;2023-03-31T09:18:38;4.10;;;1.00;;
8895;SDS011;4484;48.928;10.066;2023-03-31T09:24:05;1.77;;;0.90;;
8895;SDS011;4484;48.928;10.066;2023-03-31T09:26:40;4.93;;;1.27;;
8895;SDS011;4484;48.928;10.066;2023-03-31T09:29:12;2.37;;;0.90;;
8895;SDS011;4484;48.928;10.066;2023-03-31T09:31:45;3.57;;;1.30;;
8895;SDS011;4484;48.928;10.066;2023-03-31T09:34:18;2.53;;;1.23;;
8895;SDS011;4484;48.928;10.066;2023-03-31T09:36:50;4.40;;;1.10;;
8895;SDS011;4484;48.928;10.066;2023-03-31T09:39:17;3.10;;;0.93;;
8895;SDS011;4484;48.928;10.066;2023-03-31T09:41:45;1.97;;;1.23;;
8895;SDS011;4484;48.928;10.066;2023-03-31T09:44:20;3.37;;;0.93;;
8895;SDS011;4484;48.928;10.066;2023-03-31T09:46:51;2.07;;;1.10;;
8895;SDS011;4484;48.928;10.066;2023-03-31T09:49:31;1.67;;;1.00;;
8895;SDS011;4484;48.928;10.066;2023-03-31T09:52:05;4.20;;;0.87;;
8895;SDS011;4484;48.928;10.066;2023-03-31T09:54:53;2.77;;;1.10;;
8895;SDS011;4484;48.928;10.066;2023-03-31T09:57:25;3.30;;;1.10;;
8895;SDS011;4484;48.928;10.066;2023-03-31T10:02:43;5.23;;;2.20;;
8895;SDS011;4484;48.928;10.066;2023-03-31T10:05:18;3.07;;;1.10;;
8895;SDS011;4484;48.928;10.066;2023-03-31T10:08:13;4.23;;;1.10;;
8895;SDS011;4484;48.928;10.066;2023-03-31T10:10:54;1.10;;;0.70;;
8895;SDS011;4484;48.928;10.066;2023-03-31T10:13:24;2.00;;;1.13;;
8895;SDS011;4484;48.928;10.066;2023-03-31T10:16:01;5.17;;;1.43;;
8895;SDS011;4484;48.928;10.066;2023-03-31T10:18:34;3.17;;;1.33;;
8895;SDS011;4484;48.928;10.066;2023-03-31T10:21:09;3.03;;;0.80;;
8895;SDS011;4484;48.928;10.066;2023-03-31T10:23:49;2.90;;;1.10;;
8895;SDS011;4484;48.928;10.066;2023-03-31T10:26:19;2.17;;;1.13;;
8895;SDS011;4484;48.928;10.066;2023-03-31T10:28:48;3.77;;;1.30;;
8895;SDS011;4484;48.928;10.066;2023-03-31T10:31:18;2.93;;;1.37;;
8895;SDS011;4484;48.928;10.066;2023-03-31T10:33:49;2.43;;;0.90;;
8895;SDS011;4484;48.928;10.066;2023-03-31T10:36:23;2.03;;;0.90;;
8895;SDS011;4484;48.928;10.066;2023-03-31T10:38:52;1.87;;;0.90;;
8895;SDS011;4484;48.928;10.066;2023-03-31T10:41:24;4.27;;;1.03;;
8895;SDS011;4484;48.928;10.066;2023-03-31T10:43:55;1.77;;;0.80;;
8895;SDS011;4484;48.928;10.066;2023-03-31T10:51:53;1.93;;;0.80;;
8895;SDS011;4484;48.928;10.066;2023-03-31T10:54:23;5.40;;;1.30;;
8895;SDS011;4484;48.928;10.066;2023-03-31T10:57:02;3.50;;;1.13;;
8895;SDS011;4484;48.928;10.066;2023-03-31T11:02:12;3.77;;;1.10;;
8895;SDS011;4484;48.928;10.066;2023-03-31T11:14:14;3.57;;;1.27;;
8895;SDS011;4484;48.928;10.066;2023-03-31T11:17:00;4.00;;;1.40;;
8895;SDS011;4484;48.928;10.066;2023-03-31T11:19:49;3.20;;;1.40;;
8895;SDS011;4484;48.928;10.066;2023-03-31T11:28:38;3.87;;;1.20;;
8895;SDS011;4484;48.928;10.066;2023-03-31T11:36:49;3.10;;;0.83;;
8895;SDS011;4484;48.928;10.066;2023-03-31T11:39:30;6.67;;;1.07;;
8895;SDS011;4484;48.928;10.066;2023-03-31T11:42:17;4.70;;;0.97;;
8895;SDS011;4484;48.928;10.066;2023-03-31T11:44:49;3.10;;;1.23;;
8895;SDS011;4484;48.928;10.066;2023-03-31T11:47:22;5.13;;;1.37;;
8895;SDS011;4484;48.928;10.066;2023-03-31T11:49:56;5.10;;;1.07;;
8895;SDS011;4484;48.928;10.066;2023-03-31T11:52:27;6.27;;;1.37;;
8895;SDS011;4484;48.928;10.066;2023-03-31T11:55:01;4.00;;;1.20;;
8895;SDS011;4484;48.928;10.066;2023-03-31T11:57:41;5.23;;;1.30;;
8895;SDS011;4484;48.928;10.066;2023-03-31T12:00:20;4.00;;;1.33;;
8895;SDS011;4484;48.928;10.066;2023-03-31T12:03:09;3.97;;;1.47;;
8895;SDS011;4484;48.928;10.066;2023-03-31T12:06:17;5.37;;;1.00;;
8895;SDS011;4484;48.928;10.066;2023-03-31T12:09:00;2.07;;;0.73;;
8895;SDS011;4484;48.928;10.066;2023-03-31T12:14:36;1.03;;;0.40;;
8895;SDS011;4484;48.928;10.066;2023-03-31T12:17:12;1.43;;;0.40;;
8895;SDS011;4484;48.928;10.066;2023-03-31T12:19:46;0.60;;;0.30;;
8895;SDS011;4484;48.928;10.066;2023-03-31T12:22:24;0.73;;;0.40;;
8895;SDS011;4484;48.928;10.066;2023-03-31T12:24:57;0.83;;;0.20;;
8895;SDS011;4484;48.928;10.066;2023-03-31T12:27:41;0.40;;;0.23;;
8895;SDS011;4484;48.928;10.066;2023-03-31T12:32:55;1.37;;;0.40;;
8895;SDS011;4484;48.928;10.066;2023-03-31T12:38:23;1.63;;;0.63;;
8895;SDS011;4484;48.928;10.066;2023-03-31T12:47:01;2.10;;;0.60;;
8895;SDS011;4484;48.928;10.066;2023-03-31T12:56:00;1.60;;;0.60;;
8895;SDS011;4484;48.928;10.066;2023-03-31T13:03:42;1.93;;;0.50;;
8895;SDS011;4484;48.928;10.066;2023-03-31T13:08:54;0.77;;;0.40;;
8895;SDS011;4484;48.928;10.066;2023-03-31T13:13:59;1.10;;;0.63;;
8895;SDS011;4484;48.928;10.066;2023-03-31T13:16:44;3.07;;;0.40;;
8895;SDS011;4484;48.928;10.066;2023-03-31T13:19:22;1.70;;;0.80;;
8895;SDS011;4484;48.928;10.066;2023-03-31T13:21:58;0.53;;;0.40;;
8895;SDS011;4484;48.928;10.066;2023-03-31T13:24:27;2.50;;;0.60;;
8895;SDS011;4484;48.928;10.066;2023-03-31T13:26:57;1.47;;;0.47;;
8895;SDS011;4484;48.928;10.066;2023-03-31T13:29:44;2.33;;;0.67;;
8895;SDS011;4484;48.928;10.066;2023-03-31T13:34:48;2.60;;;1.23;;
8895;SDS011;4484;48.928;10.066;2023-03-31T13:40:54;1.70;;;0.90;;
8895;SDS011;4484;48.928;10.066;2023-03-31T13:43:56;4.07;;;0.67;;
8895;SDS011;4484;48.928;10.066;2023-03-31T13:46:35;1.70;;;0.80;;
8895;SDS011;4484;48.928;10.066;2023-03-31T13:52:38;2.07;;;0.53;;
8895;SDS011;4484;48.928;10.066;2023-03-31T13:55:23;3.97;;;0.80;;
8895;SDS011;4484;48.928;10.066;2023-03-31T13:58:21;2.30;;;0.77;;
8895;SDS011;4484;48.928;10.066;2023-03-31T14:06:35;2.73;;;1.07;;
8895;SDS011;4484;48.928;10.066;2023-03-31T14:09:06;3.00;;;1.00;;
8895;SDS011;4484;48.928;10.066;2023-03-31T14:11:35;5.00;;;0.83;;
8895;SDS011;4484;48.928;10.066;2023-03-31T14:16:56;2.10;;;0.70;;
8895;SDS011;4484;48.928;10.066;2023-03-31T14:39:19;3.13;;;1.00;;
8895;SDS011;4484;48.928;10.066;2023-03-31T14:41:51;1.93;;;0.60;;
8895;SDS011;4484;48.928;10.066;2023-03-31T14:44:19;3.27;;;0.90;;
8895;SDS011;4484;48.928;10.066;2023-03-31T14:46:47;1.70;;;0.80;;
8895;SDS011;4484;48.928;10.066;2023-03-31T14:49:18;1.87;;;1.00;;
8895;SDS011;4484;48.928;10.066;2023-03-31T14:51:47;0.77;;;0.57;;
8895;SDS011;4484;48.928;10.066;2023-03-31T14:54:17;1.90;;;0.40;;
8895;SDS011;4484;48.928;10.066;2023-03-31T14:56:52;1.47;;;0.60;;
8895;SDS011;4484;48.928;10.066;2023-03-31T14:59:27;3.00;;;0.70;;
8895;SDS011;4484;48.928;10.066;2023-03-31T15:01:58;4.70;;;0.93;;
8895;SDS011;4484;48.928;10.066;2023-03-31T15:04:30;4.53;;;1.37;;
8895;SDS011;4484;48.928;10.066;2023-03-31T15:07:10;0.50;;;0.50;;
8895;SDS011;4484;48.928;10.066;2023-03-31T15:09:37;2.80;;;0.40;;
8895;SDS011;4484;48.928;10.066;2023-03-31T15:12:07;0.77;;;0.70;;
8895;SDS011;4484;48.928;10.066;2023-03-31T15:14:47;1.80;;;0.50;;
8895;SDS011;4484;48.928;10.066;2023-03-31T15:19:58;3.07;;;0.50;;
8895;SDS011;4484;48.928;10.066;2023-03-31T15:22:26;1.03;;;0.50;;
8895;SDS011;4484;48.928;10.066;2023-03-31T15:24:55;2.27;;;0.43;;
8895;SDS011;4484;48.928;10.066;2023-03-31T15:30:13;1.33;;;0.60;;
8895;SDS011;4484;48.928;10.066;2023-03-31T15:32:45;1.97;;;0.60;;
8895;SDS011;4484;48.928;10.066;2023-03-31T15:35:23;0.93;;;0.53;;
8895;SDS011;4484;48.928;10.066;2023-03-31T15:37:55;1.23;;;0.40;;
8895;SDS011;4484;48.928;10.066;2023-03-31T15:40:24;1.77;;;0.33;;
8895;SDS011;4484;48.928;10.066;2023-03-31T15:43:05;3.60;;;0.70;;
8895;SDS011;4484;48.928;10.066;2023-03-31T15:45:51;1.90;;;0.47;;
8895;SDS011;4484;48.928;10.066;2023-03-31T15:50:46;1.13;;;0.50;;
8895;SDS011;4484;48.928;10.066;2023-03-31T15:53:25;1.00;;;0.23;;
8895;SDS011;4484;48.928;10.066;2023-03-31T15:55:54;1.50;;;0.47;;
8895;SDS011;4484;48.928;10.066;2023-03-31T15:58:47;0.83;;;0.30;;
8895;SDS011;4484;48.928;10.066;2023-03-31T16:01:26;3.87;;;0.40;;
8895;SDS011;4484;48.928;10.066;2023-03-31T16:04:11;1.27;;;0.47;;
8895;SDS011;4484;48.928;10.066;2023-03-31T16:06:44;1.60;;;0.30;;
8895;SDS011;4484;48.928;10.066;2023-03-31T16:09:16;0.93;;;0.40;;
8895;SDS011;4484;48.928;10.066;2023-03-31T16:11:50;2.17;;;0.30;;
8895;SDS011;4484;48.928;10.066;2023-03-31T16:14:42;1.37;;;0.53;;
8895;SDS011;4484;48.928;10.066;2023-03-31T16:17:25;1.60;;;0.50;;
8895;SDS011;4484;48.928;10.066;2023-03-31T16:19:59;1.13;;;0.43;;
8895;SDS011;4484;48.928;10.066;2023-03-31T16:22:38;2.13;;;0.70;;
8895;SDS011;4484;48.928;10.066;2023-03-31T16:25:12;2.77;;;0.60;;
8895;SDS011;4484;48.928;10.066;2023-03-31T16:27:43;2.13;;;0.77;;
8895;SDS011;4484;48.928;10.066;2023-03-31T16:30:14;1.17;;;0.50;;
8895;SDS011;4484;48.928;10.066;2023-03-31T16:32:58;1.67;;;0.60;;
8895;SDS011;4484;48.928;10.066;2023-03-31T16:35:29;2.10;;;0.50;;
8895;SDS011;4484;48.928;10.066;2023-03-31T16:38:02;2.67;;;0.40;;
8895;SDS011;4484;48.928;10.066;2023-03-31T16:40:33;3.77;;;0.60;;
8895;SDS011;4484;48.928;10.066;2023-03-31T16:46:05;1.60;;;0.70;;
8895;SDS011;4484;48.928;10.066;2023-03-31T16:48:31;1.37;;;0.40;;
8895;SDS011;4484;48.928;10.066;2023-03-31T16:50:59;3.20;;;0.70;;
8895;SDS011;4484;48.928;10.066;2023-03-31T16:53:27;1.70;;;0.50;;
8895;SDS011;4484;48.928;10.066;2023-03-31T16:55:56;1.17;;;0.50;;
8895;SDS011;4484;48.928;10.066;2023-03-31T16:58:23;0.67;;;0.40;;
8895;SDS011;4484;48.928;10.066;2023-03-31T17:00:51;1.83;;;0.90;;
8895;SDS011;4484;48.928;10.066;2023-03-31T17:03:19;2.73;;;0.90;;
8895;SDS011;4484;48.928;10.066;2023-03-31T17:05:48;1.87;;;0.50;;
8895;SDS011;4484;48.928;10.066;2023-03-31T17:08:19;1.97;;;0.80;;
8895;SDS011;4484;48.928;10.066;2023-03-31T17:10:53;2.40;;;0.80;;
8895;SDS011;4484;48.928;10.066;2023-03-31T17:13:23;1.40;;;0.60;;
8895;SDS011;4484;48.928;10.066;2023-03-31T17:15:50;2.63;;;1.07;;
8895;SDS011;4484;48.928;10.066;2023-03-31T17:18:29;3.43;;;1.10;;
8895;SDS011;4484;48.928;10.066;2023-03-31T17:21:03;1.57;;;0.70;;
8895;SDS011;4484;48.928;10.066;2023-03-31T17:23:32;3.40;;;0.80;;
8895;SDS011;4484;48.928;10.066;2023-03-31T17:25:59;3.03;;;0.93;;
8895;SDS011;4484;48.928;10.066;2023-03-31T17:28:27;2.27;;;0.80;;
8895;SDS011;4484;48.928;10.066;2023-03-31T17:30:53;3.07;;;0.67;;
8895;SDS011;4484;48.928;10.066;2023-03-31T17:33:20;4.63;;;1.30;;
8895;SDS011;4484;48.928;10.066;2023-03-31T17:35:48;3.07;;;0.93;;
8895;SDS011;4484;48.928;10.066;2023-03-31T17:38:15;3.57;;;1.00;;
8895;SDS011;4484;48.928;10.066;2023-03-31T17:40:44;2.07;;;0.70;;
8895;SDS011;4484;48.928;10.066;2023-03-31T17:43:12;3.33;;;0.90;;
8895;SDS011;4484;48.928;10.066;2023-03-31T17:45:39;2.03;;;0.73;;
8895;SDS011;4484;48.928;10.066;2023-03-31T17:48:06;2.83;;;1.10;;
8895;SDS011;4484;48.928;10.066;2023-03-31T17:50:35;2.47;;;0.90;;
8895;SDS011;4484;48.928;10.066;2023-03-31T17:53:03;2.70;;;1.00;;
8895;SDS011;4484;48.928;10.066;2023-03-31T17:55:35;2.60;;;1.10;;
8895;SDS011;4484;48.928;10.066;2023-03-31T17:58:04;2.43;;;1.07;;
8895;SDS011;4484;48.928;10.066;2023-03-31T18:00:31;3.63;;;1.10;;
8895;SDS011;4484;48.928;10.066;2023-03-31T18:02:58;2.23;;;0.63;;
8895;SDS011;4484;48.928;10.066;2023-03-31T18:05:26;2.73;;;0.87;;
8895;SDS011;4484;48.928;10.066;2023-03-31T18:07:53;2.23;;;0.83;;
8895;SDS011;4484;48.928;10.066;2023-03-31T18:10:20;2.53;;;0.70;;
8895;SDS011;4484;48.928;10.066;2023-03-31T18:12:48;1.77;;;0.80;;
8895;SDS011;4484;48.928;10.066;2023-03-31T18:15:15;3.03;;;0.60;;
8895;SDS011;4484;48.928;10.066;2023-03-31T18:17:42;2.20;;;0.70;;
8895;SDS011;4484;48.928;10.066;2023-03-31T18:20:09;3.50;;;0.83;;
8895;SDS011;4484;48.928;10.066;2023-03-31T18:22:37;4.70;;;0.67;;
8895;SDS011;4484;48.928;10.066;2023-03-31T18:25:04;4.53;;;1.00;;
8895;SDS011;4484;48.928;10.066;2023-03-31T18:27:31;2.37;;;0.60;;
8895;SDS011;4484;48.928;10.066;2023-03-31T18:29:58;4.03;;;0.90;;